KBHC

Baxley Municipal Airport

Baxley, Georgia, USA
METAR KBHC 172115Z AUTO 00000KT 10SM SCT090 21/12 A3019 RMK AO2
Observed Flight Rules
Dec-17 @ 21:15 UTC (19 minutes ago) Visual Flight Rules
Wind Visibility Clouds
Calm 10 miles
  • Scattered at 9,000' AGL
Temperatures Readings
Current 21°C / 70°F
Dewpoint 12°C / 54°F
Humidity 57%
Altimeter 30.19" Hg
Pressure 1022 hPa
Elevation 61
METAR KBHC 172115Z AUTO 00000KT 10SM SCT090 21/12 A3019 RMK AO2
Observed Flight Rules
Dec-17 @ 21:15 UTC
(19 minutes ago)
VFR
Wind Visibility
Calm 10 miles
Clouds
  • Scattered at 9,000' AGL
Temperature Dewpoint
21°C / 70°F 12°C / 54°F
Humidity Altimeter Pressure
57% 30.19" Hg 1022 hPa